sensor_id;sensor_type;location;lat;lon;timestamp;P1;durP1;ratioP1;P2;durP2;ratioP2
16442;SDS011;8331;51.654;14.376;2022-10-22T00:02:25;17.53;;;14.80;;
16442;SDS011;8331;51.654;14.376;2022-10-22T00:04:53;18.27;;;15.90;;
16442;SDS011;8331;51.654;14.376;2022-10-22T00:07:20;20.10;;;14.90;;
16442;SDS011;8331;51.654;14.376;2022-10-22T00:09:46;18.57;;;15.00;;
16442;SDS011;8331;51.654;14.376;2022-10-22T00:12:13;20.70;;;16.57;;
16442;SDS011;8331;51.654;14.376;2022-10-22T00:14:40;21.93;;;16.20;;
16442;SDS011;8331;51.654;14.376;2022-10-22T00:17:07;19.20;;;16.40;;
16442;SDS011;8331;51.654;14.376;2022-10-22T00:19:37;24.93;;;16.70;;
16442;SDS011;8331;51.654;14.376;2022-10-22T00:22:03;20.23;;;16.60;;
16442;SDS011;8331;51.654;14.376;2022-10-22T00:24:34;16.57;;;14.60;;
16442;SDS011;8331;51.654;14.376;2022-10-22T00:27:01;16.53;;;14.53;;
16442;SDS011;8331;51.654;14.376;2022-10-22T00:29:27;17.60;;;14.97;;
16442;SDS011;8331;51.654;14.376;2022-10-22T00:31:54;19.30;;;15.07;;
16442;SDS011;8331;51.654;14.376;2022-10-22T00:34:26;16.83;;;15.03;;
16442;SDS011;8331;51.654;14.376;2022-10-22T00:36:52;23.10;;;15.37;;
16442;SDS011;8331;51.654;14.376;2022-10-22T00:39:19;18.17;;;15.27;;
16442;SDS011;8331;51.654;14.376;2022-10-22T00:41:47;17.40;;;15.67;;
16442;SDS011;8331;51.654;14.376;2022-10-22T00:46:59;20.57;;;16.90;;
16442;SDS011;8331;51.654;14.376;2022-10-22T00:49:25;22.67;;;18.40;;
16442;SDS011;8331;51.654;14.376;2022-10-22T00:51:52;23.20;;;18.40;;
16442;SDS011;8331;51.654;14.376;2022-10-22T00:54:18;23.87;;;18.00;;
16442;SDS011;8331;51.654;14.376;2022-10-22T00:56:45;20.33;;;16.97;;
16442;SDS011;8331;51.654;14.376;2022-10-22T00:59:11;21.27;;;17.00;;
16442;SDS011;8331;51.654;14.376;2022-10-22T01:01:38;22.10;;;17.63;;
16442;SDS011;8331;51.654;14.376;2022-10-22T01:04:04;22.27;;;16.53;;
16442;SDS011;8331;51.654;14.376;2022-10-22T01:06:31;21.57;;;17.60;;
16442;SDS011;8331;51.654;14.376;2022-10-22T01:09:08;24.33;;;17.47;;
16442;SDS011;8331;51.654;14.376;2022-10-22T01:11:50;18.93;;;16.57;;
16442;SDS011;8331;51.654;14.376;2022-10-22T01:22:18;19.67;;;16.17;;
16442;SDS011;8331;51.654;14.376;2022-10-22T01:24:49;18.70;;;16.70;;
16442;SDS011;8331;51.654;14.376;2022-10-22T01:27:33;20.90;;;17.13;;
16442;SDS011;8331;51.654;14.376;2022-10-22T01:30:04;20.20;;;16.63;;
16442;SDS011;8331;51.654;14.376;2022-10-22T01:32:33;20.43;;;16.50;;
16442;SDS011;8331;51.654;14.376;2022-10-22T01:35:02;19.03;;;15.47;;
16442;SDS011;8331;51.654;14.376;2022-10-22T01:37:30;21.97;;;17.47;;
16442;SDS011;8331;51.654;14.376;2022-10-22T01:39:59;23.10;;;17.47;;
16442;SDS011;8331;51.654;14.376;2022-10-22T01:42:26;20.23;;;15.90;;
16442;SDS011;8331;51.654;14.376;2022-10-22T01:44:53;22.43;;;17.17;;
16442;SDS011;8331;51.654;14.376;2022-10-22T01:47:22;19.63;;;16.07;;
16442;SDS011;8331;51.654;14.376;2022-10-22T01:52:40;19.83;;;17.13;;
16442;SDS011;8331;51.654;14.376;2022-10-22T01:55:18;19.53;;;15.70;;
16442;SDS011;8331;51.654;14.376;2022-10-22T01:58:13;20.77;;;17.00;;
16442;SDS011;8331;51.654;14.376;2022-10-22T02:00:32;20.70;;;16.53;;
16442;SDS011;8331;51.654;14.376;2022-10-22T02:03:08;25.97;;;17.63;;
16442;SDS011;8331;51.654;14.376;2022-10-22T02:05:46;22.27;;;16.27;;
16442;SDS011;8331;51.654;14.376;2022-10-22T02:08:19;23.33;;;16.10;;
16442;SDS011;8331;51.654;14.376;2022-10-22T02:10:45;19.10;;;16.40;;
16442;SDS011;8331;51.654;14.376;2022-10-22T02:13:15;20.57;;;17.00;;
16442;SDS011;8331;51.654;14.376;2022-10-22T02:15:44;22.50;;;16.60;;
16442;SDS011;8331;51.654;14.376;2022-10-22T02:18:11;20.13;;;16.40;;
16442;SDS011;8331;51.654;14.376;2022-10-22T02:20:39;21.27;;;15.10;;
16442;SDS011;8331;51.654;14.376;2022-10-22T02:23:06;21.80;;;16.30;;
16442;SDS011;8331;51.654;14.376;2022-10-22T02:25:34;21.03;;;15.70;;
16442;SDS011;8331;51.654;14.376;2022-10-22T02:30:30;19.60;;;15.23;;
16442;SDS011;8331;51.654;14.376;2022-10-22T02:35:43;20.23;;;15.70;;
16442;SDS011;8331;51.654;14.376;2022-10-22T02:38:09;17.53;;;14.87;;
16442;SDS011;8331;51.654;14.376;2022-10-22T02:40:36;23.80;;;16.10;;
16442;SDS011;8331;51.654;14.376;2022-10-22T02:43:03;16.57;;;14.77;;
16442;SDS011;8331;51.654;14.376;2022-10-22T02:45:30;21.10;;;15.13;;
16442;SDS011;8331;51.654;14.376;2022-10-22T02:47:57;26.10;;;16.50;;
16442;SDS011;8331;51.654;14.376;2022-10-22T02:50:23;19.00;;;15.57;;
16442;SDS011;8331;51.654;14.376;2022-10-22T02:52:50;20.33;;;16.00;;
16442;SDS011;8331;51.654;14.376;2022-10-22T02:55:16;21.63;;;16.10;;
16442;SDS011;8331;51.654;14.376;2022-10-22T02:57:43;19.60;;;14.77;;
16442;SDS011;8331;51.654;14.376;2022-10-22T03:00:09;19.73;;;15.70;;
16442;SDS011;8331;51.654;14.376;2022-10-22T03:02:36;17.97;;;15.10;;
16442;SDS011;8331;51.654;14.376;2022-10-22T03:05:03;18.83;;;14.77;;
16442;SDS011;8331;51.654;14.376;2022-10-22T03:07:30;19.17;;;14.80;;
16442;SDS011;8331;51.654;14.376;2022-10-22T03:09:56;17.73;;;15.70;;
16442;SDS011;8331;51.654;14.376;2022-10-22T03:12:23;20.80;;;14.97;;
16442;SDS011;8331;51.654;14.376;2022-10-22T03:14:49;17.50;;;14.80;;
16442;SDS011;8331;51.654;14.376;2022-10-22T03:17:16;24.73;;;17.40;;
16442;SDS011;8331;51.654;14.376;2022-10-22T03:19:42;21.13;;;15.47;;
16442;SDS011;8331;51.654;14.376;2022-10-22T03:22:10;19.90;;;15.30;;
16442;SDS011;8331;51.654;14.376;2022-10-22T03:24:38;21.60;;;15.40;;
16442;SDS011;8331;51.654;14.376;2022-10-22T03:27:05;19.37;;;15.57;;
16442;SDS011;8331;51.654;14.376;2022-10-22T03:29:32;19.60;;;15.37;;
16442;SDS011;8331;51.654;14.376;2022-10-22T03:32:01;27.73;;;15.20;;
16442;SDS011;8331;51.654;14.376;2022-10-22T03:34:27;19.57;;;15.67;;
16442;SDS011;8331;51.654;14.376;2022-10-22T03:36:53;22.20;;;16.17;;
16442;SDS011;8331;51.654;14.376;2022-10-22T03:39:22;22.33;;;15.57;;
16442;SDS011;8331;51.654;14.376;2022-10-22T03:41:49;19.80;;;15.07;;
16442;SDS011;8331;51.654;14.376;2022-10-22T03:44:16;18.43;;;14.13;;
16442;SDS011;8331;51.654;14.376;2022-10-22T03:46:43;21.60;;;14.53;;
16442;SDS011;8331;51.654;14.376;2022-10-22T03:49:10;21.00;;;15.43;;
16442;SDS011;8331;51.654;14.376;2022-10-22T03:51:36;19.90;;;14.37;;
16442;SDS011;8331;51.654;14.376;2022-10-22T03:54:03;25.03;;;16.27;;
16442;SDS011;8331;51.654;14.376;2022-10-22T03:56:29;21.03;;;15.00;;
16442;SDS011;8331;51.654;14.376;2022-10-22T03:58:56;17.93;;;15.00;;
16442;SDS011;8331;51.654;14.376;2022-10-22T04:01:23;17.93;;;14.67;;
16442;SDS011;8331;51.654;14.376;2022-10-22T04:03:50;21.37;;;15.20;;
16442;SDS011;8331;51.654;14.376;2022-10-22T04:06:16;21.07;;;15.50;;
16442;SDS011;8331;51.654;14.376;2022-10-22T04:08:43;20.97;;;15.50;;
16442;SDS011;8331;51.654;14.376;2022-10-22T04:11:10;22.20;;;15.70;;
16442;SDS011;8331;51.654;14.376;2022-10-22T04:13:37;18.40;;;13.80;;
16442;SDS011;8331;51.654;14.376;2022-10-22T04:18:33;26.60;;;14.97;;
16442;SDS011;8331;51.654;14.376;2022-10-22T04:21:02;15.40;;;13.57;;
16442;SDS011;8331;51.654;14.376;2022-10-22T04:23:28;23.77;;;14.67;;
16442;SDS011;8331;51.654;14.376;2022-10-22T04:25:58;21.73;;;15.20;;
16442;SDS011;8331;51.654;14.376;2022-10-22T04:28:25;21.00;;;15.10;;
16442;SDS011;8331;51.654;14.376;2022-10-22T04:30:51;17.40;;;13.87;;
16442;SDS011;8331;51.654;14.376;2022-10-22T04:33:18;18.10;;;14.03;;
16442;SDS011;8331;51.654;14.376;2022-10-22T04:35:44;20.10;;;15.53;;
16442;SDS011;8331;51.654;14.376;2022-10-22T04:38:11;16.20;;;14.17;;
16442;SDS011;8331;51.654;14.376;2022-10-22T04:40:37;19.97;;;14.50;;
16442;SDS011;8331;51.654;14.376;2022-10-22T04:43:04;18.73;;;14.60;;
16442;SDS011;8331;51.654;14.376;2022-10-22T04:45:33;21.60;;;15.00;;
16442;SDS011;8331;51.654;14.376;2022-10-22T04:48:00;23.43;;;15.80;;
16442;SDS011;8331;51.654;14.376;2022-10-22T04:50:26;19.03;;;15.17;;
16442;SDS011;8331;51.654;14.376;2022-10-22T04:52:53;20.93;;;15.60;;
16442;SDS011;8331;51.654;14.376;2022-10-22T04:55:20;20.03;;;14.63;;
16442;SDS011;8331;51.654;14.376;2022-10-22T04:57:46;20.87;;;14.90;;
16442;SDS011;8331;51.654;14.376;2022-10-22T05:00:13;24.93;;;16.80;;
16442;SDS011;8331;51.654;14.376;2022-10-22T05:02:41;25.40;;;17.93;;
16442;SDS011;8331;51.654;14.376;2022-10-22T05:05:09;27.93;;;18.70;;
16442;SDS011;8331;51.654;14.376;2022-10-22T05:07:37;27.47;;;16.40;;
16442;SDS011;8331;51.654;14.376;2022-10-22T05:10:04;19.67;;;14.97;;
16442;SDS011;8331;51.654;14.376;2022-10-22T05:12:31;20.13;;;15.10;;
16442;SDS011;8331;51.654;14.376;2022-10-22T05:14:57;21.43;;;15.17;;
16442;SDS011;8331;51.654;14.376;2022-10-22T05:17:23;19.47;;;14.47;;
16442;SDS011;8331;51.654;14.376;2022-10-22T05:19:50;20.13;;;15.43;;
16442;SDS011;8331;51.654;14.376;2022-10-22T05:22:16;18.90;;;14.27;;
16442;SDS011;8331;51.654;14.376;2022-10-22T05:24:43;19.00;;;14.30;;
16442;SDS011;8331;51.654;14.376;2022-10-22T05:27:09;20.60;;;14.83;;
16442;SDS011;8331;51.654;14.376;2022-10-22T05:29:36;17.00;;;14.10;;
16442;SDS011;8331;51.654;14.376;2022-10-22T05:32:02;18.13;;;14.43;;
16442;SDS011;8331;51.654;14.376;2022-10-22T05:34:29;18.97;;;14.67;;
16442;SDS011;8331;51.654;14.376;2022-10-22T05:36:56;19.93;;;15.03;;
16442;SDS011;8331;51.654;14.376;2022-10-22T05:39:22;18.13;;;14.07;;
16442;SDS011;8331;51.654;14.376;2022-10-22T05:41:49;17.27;;;14.07;;
16442;SDS011;8331;51.654;14.376;2022-10-22T05:44:15;19.17;;;14.23;;
16442;SDS011;8331;51.654;14.376;2022-10-22T05:46:42;18.60;;;15.60;;
16442;SDS011;8331;51.654;14.376;2022-10-22T05:49:10;16.07;;;14.03;;
16442;SDS011;8331;51.654;14.376;2022-10-22T05:51:37;19.60;;;14.90;;
16442;SDS011;8331;51.654;14.376;2022-10-22T05:54:04;19.83;;;14.50;;
16442;SDS011;8331;51.654;14.376;2022-10-22T05:56:32;20.30;;;14.33;;
16442;SDS011;8331;51.654;14.376;2022-10-22T05:58:58;18.90;;;14.53;;
16442;SDS011;8331;51.654;14.376;2022-10-22T06:01:26;19.20;;;14.67;;
16442;SDS011;8331;51.654;14.376;2022-10-22T06:03:53;21.13;;;15.73;;
16442;SDS011;8331;51.654;14.376;2022-10-22T06:08:47;22.87;;;15.80;;
16442;SDS011;8331;51.654;14.376;2022-10-22T06:11:16;21.47;;;16.37;;
16442;SDS011;8331;51.654;14.376;2022-10-22T06:13:43;23.57;;;16.23;;
16442;SDS011;8331;51.654;14.376;2022-10-22T06:16:10;22.60;;;16.03;;
16442;SDS011;8331;51.654;14.376;2022-10-22T06:18:37;19.03;;;15.03;;
16442;SDS011;8331;51.654;14.376;2022-10-22T06:21:06;20.87;;;15.37;;
16442;SDS011;8331;51.654;14.376;2022-10-22T06:23:33;21.57;;;15.60;;
16442;SDS011;8331;51.654;14.376;2022-10-22T06:26:00;18.20;;;14.90;;
16442;SDS011;8331;51.654;14.376;2022-10-22T06:28:26;21.87;;;14.90;;
16442;SDS011;8331;51.654;14.376;2022-10-22T06:30:53;21.03;;;13.43;;
16442;SDS011;8331;51.654;14.376;2022-10-22T06:33:19;20.83;;;14.50;;
16442;SDS011;8331;51.654;14.376;2022-10-22T06:35:46;21.30;;;14.87;;
16442;SDS011;8331;51.654;14.376;2022-10-22T06:38:13;24.30;;;15.93;;
16442;SDS011;8331;51.654;14.376;2022-10-22T06:40:40;22.40;;;15.83;;
16442;SDS011;8331;51.654;14.376;2022-10-22T06:43:08;24.60;;;16.73;;
16442;SDS011;8331;51.654;14.376;2022-10-22T06:45:35;19.67;;;15.27;;
16442;SDS011;8331;51.654;14.376;2022-10-22T06:48:02;16.97;;;14.17;;
16442;SDS011;8331;51.654;14.376;2022-10-22T06:50:28;20.03;;;15.40;;
16442;SDS011;8331;51.654;14.376;2022-10-22T06:52:54;20.50;;;16.57;;
16442;SDS011;8331;51.654;14.376;2022-10-22T06:55:21;21.93;;;16.47;;
16442;SDS011;8331;51.654;14.376;2022-10-22T06:57:47;24.97;;;16.77;;
16442;SDS011;8331;51.654;14.376;2022-10-22T07:00:14;18.67;;;15.00;;
16442;SDS011;8331;51.654;14.376;2022-10-22T07:02:40;21.63;;;15.33;;
16442;SDS011;8331;51.654;14.376;2022-10-22T07:05:07;25.60;;;16.27;;
16442;SDS011;8331;51.654;14.376;2022-10-22T07:07:34;22.63;;;15.97;;
16442;SDS011;8331;51.654;14.376;2022-10-22T07:10:00;17.77;;;14.43;;
16442;SDS011;8331;51.654;14.376;2022-10-22T07:12:27;19.90;;;15.83;;
16442;SDS011;8331;51.654;14.376;2022-10-22T07:14:53;17.60;;;15.10;;
16442;SDS011;8331;51.654;14.376;2022-10-22T07:17:20;23.13;;;16.50;;
16442;SDS011;8331;51.654;14.376;2022-10-22T07:19:46;24.37;;;17.50;;
16442;SDS011;8331;51.654;14.376;2022-10-22T07:22:16;23.87;;;17.40;;
16442;SDS011;8331;51.654;14.376;2022-10-22T07:24:43;26.77;;;18.40;;
16442;SDS011;8331;51.654;14.376;2022-10-22T07:27:09;19.23;;;15.73;;
16442;SDS011;8331;51.654;14.376;2022-10-22T07:29:37;21.27;;;16.83;;
16442;SDS011;8331;51.654;14.376;2022-10-22T07:32:03;20.93;;;16.63;;
16442;SDS011;8331;51.654;14.376;2022-10-22T07:34:30;23.27;;;17.30;;
16442;SDS011;8331;51.654;14.376;2022-10-22T07:36:56;24.40;;;16.57;;
16442;SDS011;8331;51.654;14.376;2022-10-22T07:39:23;20.13;;;15.73;;
16442;SDS011;8331;51.654;14.376;2022-10-22T07:41:51;24.30;;;16.67;;
16442;SDS011;8331;51.654;14.376;2022-10-22T07:44:18;17.83;;;14.83;;
16442;SDS011;8331;51.654;14.376;2022-10-22T07:46:44;20.17;;;16.23;;
16442;SDS011;8331;51.654;14.376;2022-10-22T07:49:14;23.00;;;17.17;;
16442;SDS011;8331;51.654;14.376;2022-10-22T07:51:40;18.83;;;15.07;;
16442;SDS011;8331;51.654;14.376;2022-10-22T07:54:07;18.77;;;15.27;;
16442;SDS011;8331;51.654;14.376;2022-10-22T07:56:33;19.30;;;15.67;;
16442;SDS011;8331;51.654;14.376;2022-10-22T07:59:00;17.97;;;15.23;;
16442;SDS011;8331;51.654;14.376;2022-10-22T08:01:31;20.87;;;16.10;;
16442;SDS011;8331;51.654;14.376;2022-10-22T08:03:58;22.43;;;16.13;;
16442;SDS011;8331;51.654;14.376;2022-10-22T08:06:24;19.87;;;15.47;;
16442;SDS011;8331;51.654;14.376;2022-10-22T08:08:51;19.20;;;15.10;;
16442;SDS011;8331;51.654;14.376;2022-10-22T08:11:17;16.47;;;14.17;;
16442;SDS011;8331;51.654;14.376;2022-10-22T08:13:44;18.77;;;15.40;;
16442;SDS011;8331;51.654;14.376;2022-10-22T08:16:11;23.67;;;16.53;;
16442;SDS011;8331;51.654;14.376;2022-10-22T08:18:37;20.67;;;16.10;;
16442;SDS011;8331;51.654;14.376;2022-10-22T08:21:04;22.43;;;16.57;;
16442;SDS011;8331;51.654;14.376;2022-10-22T08:23:31;22.03;;;16.83;;
16442;SDS011;8331;51.654;14.376;2022-10-22T08:25:57;21.63;;;16.00;;
16442;SDS011;8331;51.654;14.376;2022-10-22T08:28:25;24.43;;;16.30;;
16442;SDS011;8331;51.654;14.376;2022-10-22T08:30:53;24.27;;;16.70;;
16442;SDS011;8331;51.654;14.376;2022-10-22T08:33:20;20.70;;;15.43;;
16442;SDS011;8331;51.654;14.376;2022-10-22T08:35:50;19.47;;;15.77;;
16442;SDS011;8331;51.654;14.376;2022-10-22T08:38:17;18.47;;;15.70;;
16442;SDS011;8331;51.654;14.376;2022-10-22T08:40:46;28.13;;;17.60;;
16442;SDS011;8331;51.654;14.376;2022-10-22T08:50:47;25.80;;;17.83;;
16442;SDS011;8331;51.654;14.376;2022-10-22T08:53:17;22.43;;;16.00;;
16442;SDS011;8331;51.654;14.376;2022-10-22T08:55:44;22.27;;;15.50;;
16442;SDS011;8331;51.654;14.376;2022-10-22T08:58:16;20.97;;;15.57;;
16442;SDS011;8331;51.654;14.376;2022-10-22T09:00:46;21.50;;;15.70;;
16442;SDS011;8331;51.654;14.376;2022-10-22T09:05:55;20.03;;;16.23;;
16442;SDS011;8331;51.654;14.376;2022-10-22T09:08:24;21.60;;;16.50;;
16442;SDS011;8331;51.654;14.376;2022-10-22T09:10:55;20.57;;;15.57;;
16442;SDS011;8331;51.654;14.376;2022-10-22T09:13:23;21.37;;;15.67;;
16442;SDS011;8331;51.654;14.376;2022-10-22T09:15:52;20.60;;;16.17;;
16442;SDS011;8331;51.654;14.376;2022-10-22T09:20:53;20.17;;;14.33;;
16442;SDS011;8331;51.654;14.376;2022-10-22T09:25:48;19.60;;;15.13;;
16442;SDS011;8331;51.654;14.376;2022-10-22T09:28:16;17.47;;;13.77;;
16442;SDS011;8331;51.654;14.376;2022-10-22T09:30:43;19.57;;;14.40;;
16442;SDS011;8331;51.654;14.376;2022-10-22T09:35:53;20.13;;;13.93;;
16442;SDS011;8331;51.654;14.376;2022-10-22T09:38:23;18.47;;;14.80;;
16442;SDS011;8331;51.654;14.376;2022-10-22T09:40:54;16.90;;;13.30;;
16442;SDS011;8331;51.654;14.376;2022-10-22T09:43:20;16.03;;;13.47;;
16442;SDS011;8331;51.654;14.376;2022-10-22T09:45:47;18.60;;;14.23;;
16442;SDS011;8331;51.654;14.376;2022-10-22T09:48:21;19.97;;;14.13;;
16442;SDS011;8331;51.654;14.376;2022-10-22T09:51:04;17.80;;;13.47;;
16442;SDS011;8331;51.654;14.376;2022-10-22T09:53:35;24.20;;;16.03;;
16442;SDS011;8331;51.654;14.376;2022-10-22T09:56:06;23.27;;;17.07;;
16442;SDS011;8331;51.654;14.376;2022-10-22T09:58:43;18.73;;;14.70;;
16442;SDS011;8331;51.654;14.376;2022-10-22T10:01:15;16.83;;;13.43;;
16442;SDS011;8331;51.654;14.376;2022-10-22T10:03:42;21.63;;;14.90;;
16442;SDS011;8331;51.654;14.376;2022-10-22T10:06:08;18.00;;;14.30;;
16442;SDS011;8331;51.654;14.376;2022-10-22T10:08:35;15.47;;;13.60;;
16442;SDS011;8331;51.654;14.376;2022-10-22T10:11:04;17.13;;;13.60;;
16442;SDS011;8331;51.654;14.376;2022-10-22T10:14:07;24.43;;;14.07;;
16442;SDS011;8331;51.654;14.376;2022-10-22T10:16:30;14.57;;;12.87;;
16442;SDS011;8331;51.654;14.376;2022-10-22T10:21:34;17.57;;;15.03;;
16442;SDS011;8331;51.654;14.376;2022-10-22T10:26:44;14.57;;;12.90;;
16442;SDS011;8331;51.654;14.376;2022-10-22T10:29:18;16.73;;;12.53;;
16442;SDS011;8331;51.654;14.376;2022-10-22T10:32:06;16.20;;;12.30;;
16442;SDS011;8331;51.654;14.376;2022-10-22T10:34:48;17.70;;;13.27;;
16442;SDS011;8331;51.654;14.376;2022-10-22T10:42:16;17.43;;;13.33;;
16442;SDS011;8331;51.654;14.376;2022-10-22T10:44:52;14.53;;;12.33;;
16442;SDS011;8331;51.654;14.376;2022-10-22T10:53:19;14.83;;;12.30;;
16442;SDS011;8331;51.654;14.376;2022-10-22T10:55:52;13.47;;;12.17;;
16442;SDS011;8331;51.654;14.376;2022-10-22T11:00:55;14.33;;;12.80;;
16442;SDS011;8331;51.654;14.376;2022-10-22T11:06:09;13.70;;;12.47;;
16442;SDS011;8331;51.654;14.376;2022-10-22T11:08:37;14.03;;;12.77;;
16442;SDS011;8331;51.654;14.376;2022-10-22T11:11:17;13.90;;;12.33;;
16442;SDS011;8331;51.654;14.376;2022-10-22T11:13:49;14.57;;;12.30;;
16442;SDS011;8331;51.654;14.376;2022-10-22T11:18:46;13.40;;;12.17;;
16442;SDS011;8331;51.654;14.376;2022-10-22T11:21:26;12.80;;;11.60;;
16442;SDS011;8331;51.654;14.376;2022-10-22T11:23:54;15.13;;;12.47;;
16442;SDS011;8331;51.654;14.376;2022-10-22T11:26:28;13.27;;;11.97;;
16442;SDS011;8331;51.654;14.376;2022-10-22T11:28:57;12.87;;;11.77;;
16442;SDS011;8331;51.654;14.376;2022-10-22T11:31:25;12.57;;;11.53;;
16442;SDS011;8331;51.654;14.376;2022-10-22T11:33:53;12.30;;;11.30;;
16442;SDS011;8331;51.654;14.376;2022-10-22T11:36:35;12.70;;;11.53;;
16442;SDS011;8331;51.654;14.376;2022-10-22T11:39:02;12.40;;;11.30;;
16442;SDS011;8331;51.654;14.376;2022-10-22T11:41:29;13.40;;;12.10;;
16442;SDS011;8331;51.654;14.376;2022-10-22T11:46:42;11.77;;;10.70;;
16442;SDS011;8331;51.654;14.376;2022-10-22T11:51:39;12.13;;;11.03;;
16442;SDS011;8331;51.654;14.376;2022-10-22T11:56:51;12.43;;;10.90;;
16442;SDS011;8331;51.654;14.376;2022-10-22T12:02:22;12.00;;;10.80;;
16442;SDS011;8331;51.654;14.376;2022-10-22T12:04:49;12.43;;;11.43;;
16442;SDS011;8331;51.654;14.376;2022-10-22T12:09:54;11.73;;;10.73;;
16442;SDS011;8331;51.654;14.376;2022-10-22T12:12:22;12.20;;;11.07;;
16442;SDS011;8331;51.654;14.376;2022-10-22T12:14:50;10.57;;;9.67;;
16442;SDS011;8331;51.654;14.376;2022-10-22T12:17:17;10.63;;;9.73;;
16442;SDS011;8331;51.654;14.376;2022-10-22T12:19:54;11.17;;;10.17;;
16442;SDS011;8331;51.654;14.376;2022-10-22T12:24:54;10.97;;;10.10;;
16442;SDS011;8331;51.654;14.376;2022-10-22T12:27:27;10.93;;;10.00;;
16442;SDS011;8331;51.654;14.376;2022-10-22T12:29:56;11.17;;;10.27;;
16442;SDS011;8331;51.654;14.376;2022-10-22T12:32:28;11.77;;;10.77;;
16442;SDS011;8331;51.654;14.376;2022-10-22T12:34:58;11.40;;;10.67;;
16442;SDS011;8331;51.654;14.376;2022-10-22T12:37:28;11.57;;;10.57;;
16442;SDS011;8331;51.654;14.376;2022-10-22T12:39:55;11.13;;;9.90;;
16442;SDS011;8331;51.654;14.376;2022-10-22T12:42:21;10.13;;;9.23;;
16442;SDS011;8331;51.654;14.376;2022-10-22T12:44:53;10.63;;;9.60;;
16442;SDS011;8331;51.654;14.376;2022-10-22T12:47:19;10.40;;;9.43;;
16442;SDS011;8331;51.654;14.376;2022-10-22T12:49:47;10.23;;;9.33;;
16442;SDS011;8331;51.654;14.376;2022-10-22T12:52:20;10.53;;;9.53;;
16442;SDS011;8331;51.654;14.376;2022-10-22T12:54:48;10.10;;;9.37;;
16442;SDS011;8331;51.654;14.376;2022-10-22T12:57:16;8.70;;;8.10;;
16442;SDS011;8331;51.654;14.376;2022-10-22T12:59:47;9.97;;;9.00;;
16442;SDS011;8331;51.654;14.376;2022-10-22T13:04:41;9.67;;;8.83;;
16442;SDS011;8331;51.654;14.376;2022-10-22T13:09:41;12.53;;;11.47;;
16442;SDS011;8331;51.654;14.376;2022-10-22T13:12:09;9.67;;;9.03;;
16442;SDS011;8331;51.654;14.376;2022-10-22T13:14:42;11.07;;;10.20;;
16442;SDS011;8331;51.654;14.376;2022-10-22T13:20:00;13.37;;;12.13;;
16442;SDS011;8331;51.654;14.376;2022-10-22T13:24:58;9.60;;;8.80;;
16442;SDS011;8331;51.654;14.376;2022-10-22T13:27:26;10.57;;;7.80;;
16442;SDS011;8331;51.654;14.376;2022-10-22T13:29:53;9.03;;;7.50;;
16442;SDS011;8331;51.654;14.376;2022-10-22T13:32:27;9.07;;;7.80;;
16442;SDS011;8331;51.654;14.376;2022-10-22T13:34:55;8.40;;;7.80;;
16442;SDS011;8331;51.654;14.376;2022-10-22T13:37:22;8.17;;;7.47;;
16442;SDS011;8331;51.654;14.376;2022-10-22T13:39:49;8.20;;;6.50;;
16442;SDS011;8331;51.654;14.376;2022-10-22T13:42:15;6.90;;;6.33;;
16442;SDS011;8331;51.654;14.376;2022-10-22T13:44:42;7.40;;;6.70;;
16442;SDS011;8331;51.654;14.376;2022-10-22T13:47:16;7.00;;;6.50;;
16442;SDS011;8331;51.654;14.376;2022-10-22T13:49:46;7.63;;;6.93;;
16442;SDS011;8331;51.654;14.376;2022-10-22T13:52:26;6.67;;;6.17;;
16442;SDS011;8331;51.654;14.376;2022-10-22T13:54:52;6.97;;;6.20;;
16442;SDS011;8331;51.654;14.376;2022-10-22T13:57:19;6.93;;;6.23;;
16442;SDS011;8331;51.654;14.376;2022-10-22T13:59:45;7.93;;;6.47;;
16442;SDS011;8331;51.654;14.376;2022-10-22T14:02:12;7.20;;;6.67;;
16442;SDS011;8331;51.654;14.376;2022-10-22T14:04:39;6.07;;;5.63;;
16442;SDS011;8331;51.654;14.376;2022-10-22T14:07:13;6.43;;;5.93;;
16442;SDS011;8331;51.654;14.376;2022-10-22T14:09:39;6.50;;;5.90;;
16442;SDS011;8331;51.654;14.376;2022-10-22T14:12:10;5.83;;;5.43;;
16442;SDS011;8331;51.654;14.376;2022-10-22T14:14:36;6.23;;;5.77;;
16442;SDS011;8331;51.654;14.376;2022-10-22T14:17:03;5.83;;;5.27;;
16442;SDS011;8331;51.654;14.376;2022-10-22T14:19:30;6.13;;;5.57;;
16442;SDS011;8331;51.654;14.376;2022-10-22T14:21:57;9.03;;;5.90;;
16442;SDS011;8331;51.654;14.376;2022-10-22T14:24:23;8.73;;;6.07;;
16442;SDS011;8331;51.654;14.376;2022-10-22T14:26:50;6.47;;;5.40;;
16442;SDS011;8331;51.654;14.376;2022-10-22T14:29:16;7.63;;;5.47;;
16442;SDS011;8331;51.654;14.376;2022-10-22T14:31:43;11.07;;;6.10;;
16442;SDS011;8331;51.654;14.376;2022-10-22T14:34:10;8.77;;;5.50;;
16442;SDS011;8331;51.654;14.376;2022-10-22T14:36:37;8.27;;;5.30;;
16442;SDS011;8331;51.654;14.376;2022-10-22T14:39:04;7.27;;;5.80;;
16442;SDS011;8331;51.654;14.376;2022-10-22T14:41:30;5.70;;;5.20;;
16442;SDS011;8331;51.654;14.376;2022-10-22T14:43:57;7.37;;;5.27;;
16442;SDS011;8331;51.654;14.376;2022-10-22T14:46:25;7.03;;;5.10;;
16442;SDS011;8331;51.654;14.376;2022-10-22T14:48:51;6.17;;;5.50;;
16442;SDS011;8331;51.654;14.376;2022-10-22T14:51:18;6.60;;;5.10;;
16442;SDS011;8331;51.654;14.376;2022-10-22T14:53:45;5.70;;;5.20;;
16442;SDS011;8331;51.654;14.376;2022-10-22T14:56:13;6.30;;;5.03;;
16442;SDS011;8331;51.654;14.376;2022-10-22T14:58:40;6.97;;;4.80;;
16442;SDS011;8331;51.654;14.376;2022-10-22T15:01:07;5.87;;;4.63;;
16442;SDS011;8331;51.654;14.376;2022-10-22T15:03:34;5.50;;;5.00;;
16442;SDS011;8331;51.654;14.376;2022-10-22T15:06:01;4.73;;;4.40;;
16442;SDS011;8331;51.654;14.376;2022-10-22T15:08:28;6.00;;;5.40;;
16442;SDS011;8331;51.654;14.376;2022-10-22T15:10:59;5.60;;;5.17;;
16442;SDS011;8331;51.654;14.376;2022-10-22T15:13:26;7.40;;;4.80;;
16442;SDS011;8331;51.654;14.376;2022-10-22T15:15:54;5.90;;;4.77;;
16442;SDS011;8331;51.654;14.376;2022-10-22T15:18:20;5.20;;;4.70;;
16442;SDS011;8331;51.654;14.376;2022-10-22T15:20:58;5.37;;;4.93;;
16442;SDS011;8331;51.654;14.376;2022-10-22T15:23:25;5.10;;;4.70;;
16442;SDS011;8331;51.654;14.376;2022-10-22T15:25:51;6.90;;;4.73;;
16442;SDS011;8331;51.654;14.376;2022-10-22T15:28:18;5.17;;;4.67;;
16442;SDS011;8331;51.654;14.376;2022-10-22T15:30:50;4.90;;;4.50;;
16442;SDS011;8331;51.654;14.376;2022-10-22T15:33:17;5.00;;;4.57;;
16442;SDS011;8331;51.654;14.376;2022-10-22T15:35:43;8.23;;;5.93;;
16442;SDS011;8331;51.654;14.376;2022-10-22T15:38:09;6.47;;;5.53;;
16442;SDS011;8331;51.654;14.376;2022-10-22T15:40:36;7.17;;;5.43;;
16442;SDS011;8331;51.654;14.376;2022-10-22T15:43:02;8.83;;;6.90;;
16442;SDS011;8331;51.654;14.376;2022-10-22T15:45:29;11.83;;;9.13;;
16442;SDS011;8331;51.654;14.376;2022-10-22T15:47:55;13.53;;;10.23;;
16442;SDS011;8331;51.654;14.376;2022-10-22T15:50:22;12.03;;;10.80;;
16442;SDS011;8331;51.654;14.376;2022-10-22T15:52:48;13.53;;;10.50;;
16442;SDS011;8331;51.654;14.376;2022-10-22T15:55:15;9.50;;;8.60;;
16442;SDS011;8331;51.654;14.376;2022-10-22T15:57:41;10.33;;;9.30;;
16442;SDS011;8331;51.654;14.376;2022-10-22T16:00:08;13.70;;;9.97;;
16442;SDS011;8331;51.654;14.376;2022-10-22T16:02:37;11.50;;;9.97;;
16442;SDS011;8331;51.654;14.376;2022-10-22T16:05:04;12.60;;;10.83;;